sensor_id;sensor_type;location;lat;lon;timestamp;P1;durP1;ratioP1;P2;durP2;ratioP2
54823;SDS011;40724;53.196;5.980;2023-12-07T00:02:15;11.27;;;5.53;;
54823;SDS011;40724;53.196;5.980;2023-12-07T00:04:41;6.05;;;4.53;;
54823;SDS011;40724;53.196;5.980;2023-12-07T00:07:07;7.60;;;4.47;;
54823;SDS011;40724;53.196;5.980;2023-12-07T00:09:33;6.88;;;4.72;;
54823;SDS011;40724;53.196;5.980;2023-12-07T00:11:59;5.70;;;4.10;;
54823;SDS011;40724;53.196;5.980;2023-12-07T00:14:26;6.43;;;5.28;;
54823;SDS011;40724;53.196;5.980;2023-12-07T00:16:52;6.40;;;4.05;;
54823;SDS011;40724;53.196;5.980;2023-12-07T00:19:19;6.40;;;4.90;;
54823;SDS011;40724;53.196;5.980;2023-12-07T00:21:45;9.65;;;4.60;;
54823;SDS011;40724;53.196;5.980;2023-12-07T00:24:11;8.65;;;5.18;;
54823;SDS011;40724;53.196;5.980;2023-12-07T00:26:37;4.82;;;4.05;;
54823;SDS011;40724;53.196;5.980;2023-12-07T00:29:03;6.75;;;4.25;;
54823;SDS011;40724;53.196;5.980;2023-12-07T00:31:29;6.35;;;4.35;;
54823;SDS011;40724;53.196;5.980;2023-12-07T00:33:55;5.43;;;4.22;;
54823;SDS011;40724;53.196;5.980;2023-12-07T00:36:22;7.95;;;5.28;;
54823;SDS011;40724;53.196;5.980;2023-12-07T00:38:48;7.43;;;5.07;;
54823;SDS011;40724;53.196;5.980;2023-12-07T00:41:15;7.72;;;5.03;;
54823;SDS011;40724;53.196;5.980;2023-12-07T00:43:41;7.53;;;4.43;;
54823;SDS011;40724;53.196;5.980;2023-12-07T00:46:07;5.13;;;4.28;;
54823;SDS011;40724;53.196;5.980;2023-12-07T00:48:33;4.93;;;4.30;;
54823;SDS011;40724;53.196;5.980;2023-12-07T00:50:59;6.10;;;4.82;;
54823;SDS011;40724;53.196;5.980;2023-12-07T00:53:26;6.88;;;5.00;;
54823;SDS011;40724;53.196;5.980;2023-12-07T00:55:52;5.80;;;4.55;;
54823;SDS011;40724;53.196;5.980;2023-12-07T00:58:18;5.78;;;4.80;;
54823;SDS011;40724;53.196;5.980;2023-12-07T01:00:44;5.38;;;3.95;;
54823;SDS011;40724;53.196;5.980;2023-12-07T01:03:10;7.72;;;4.90;;
54823;SDS011;40724;53.196;5.980;2023-12-07T01:05:36;6.28;;;4.05;;
54823;SDS011;40724;53.196;5.980;2023-12-07T01:08:03;5.88;;;4.20;;
54823;SDS011;40724;53.196;5.980;2023-12-07T01:10:29;7.32;;;4.57;;
54823;SDS011;40724;53.196;5.980;2023-12-07T01:12:55;6.20;;;4.95;;
54823;SDS011;40724;53.196;5.980;2023-12-07T01:15:21;6.28;;;3.80;;
54823;SDS011;40724;53.196;5.980;2023-12-07T01:17:47;5.97;;;4.03;;
54823;SDS011;40724;53.196;5.980;2023-12-07T01:20:13;6.57;;;5.45;;
54823;SDS011;40724;53.196;5.980;2023-12-07T01:22:40;6.38;;;3.85;;
54823;SDS011;40724;53.196;5.980;2023-12-07T01:25:10;6.43;;;4.47;;
54823;SDS011;40724;53.196;5.980;2023-12-07T01:27:38;5.93;;;4.45;;
54823;SDS011;40724;53.196;5.980;2023-12-07T01:30:04;6.35;;;4.72;;
54823;SDS011;40724;53.196;5.980;2023-12-07T01:32:30;6.78;;;4.03;;
54823;SDS011;40724;53.196;5.980;2023-12-07T01:34:56;6.32;;;4.10;;
54823;SDS011;40724;53.196;5.980;2023-12-07T01:37:22;5.47;;;4.18;;
54823;SDS011;40724;53.196;5.980;2023-12-07T01:39:49;6.20;;;4.43;;
54823;SDS011;40724;53.196;5.980;2023-12-07T01:42:15;7.90;;;5.15;;
54823;SDS011;40724;53.196;5.980;2023-12-07T01:44:41;11.05;;;5.45;;
54823;SDS011;40724;53.196;5.980;2023-12-07T01:47:07;6.47;;;4.78;;
54823;SDS011;40724;53.196;5.980;2023-12-07T01:49:35;6.03;;;3.90;;
54823;SDS011;40724;53.196;5.980;2023-12-07T01:52:01;5.03;;;4.00;;
54823;SDS011;40724;53.196;5.980;2023-12-07T01:54:28;5.30;;;3.40;;
54823;SDS011;40724;53.196;5.980;2023-12-07T01:56:54;7.70;;;4.63;;
54823;SDS011;40724;53.196;5.980;2023-12-07T01:59:21;5.68;;;3.90;;
54823;SDS011;40724;53.196;5.980;2023-12-07T02:01:47;6.38;;;4.60;;
54823;SDS011;40724;53.196;5.980;2023-12-07T02:04:13;6.88;;;4.18;;
54823;SDS011;40724;53.196;5.980;2023-12-07T02:06:39;6.43;;;4.03;;
54823;SDS011;40724;53.196;5.980;2023-12-07T02:09:05;6.68;;;4.22;;
54823;SDS011;40724;53.196;5.980;2023-12-07T02:11:32;4.85;;;3.85;;
54823;SDS011;40724;53.196;5.980;2023-12-07T02:13:58;5.10;;;3.50;;
54823;SDS011;40724;53.196;5.980;2023-12-07T02:16:27;8.55;;;4.88;;
54823;SDS011;40724;53.196;5.980;2023-12-07T02:18:59;6.03;;;4.13;;
54823;SDS011;40724;53.196;5.980;2023-12-07T02:21:34;5.50;;;3.80;;
54823;SDS011;40724;53.196;5.980;2023-12-07T02:24:00;5.60;;;3.70;;
54823;SDS011;40724;53.196;5.980;2023-12-07T02:26:30;5.07;;;3.60;;
54823;SDS011;40724;53.196;5.980;2023-12-07T02:28:56;4.25;;;3.65;;
54823;SDS011;40724;53.196;5.980;2023-12-07T02:31:22;5.53;;;3.65;;
54823;SDS011;40724;53.196;5.980;2023-12-07T02:33:48;6.30;;;3.97;;
54823;SDS011;40724;53.196;5.980;2023-12-07T02:36:15;7.18;;;4.03;;
54823;SDS011;40724;53.196;5.980;2023-12-07T02:38:45;5.15;;;3.85;;
54823;SDS011;40724;53.196;5.980;2023-12-07T02:41:12;5.10;;;4.00;;
54823;SDS011;40724;53.196;5.980;2023-12-07T02:43:38;4.95;;;3.63;;
54823;SDS011;40724;53.196;5.980;2023-12-07T02:46:05;4.88;;;3.97;;
54823;SDS011;40724;53.196;5.980;2023-12-07T02:48:31;6.43;;;3.47;;
54823;SDS011;40724;53.196;5.980;2023-12-07T02:50:57;7.28;;;4.00;;
54823;SDS011;40724;53.196;5.980;2023-12-07T02:53:23;5.07;;;3.70;;
54823;SDS011;40724;53.196;5.980;2023-12-07T02:55:49;6.35;;;4.13;;
54823;SDS011;40724;53.196;5.980;2023-12-07T02:58:16;5.60;;;3.55;;
54823;SDS011;40724;53.196;5.980;2023-12-07T03:00:42;4.22;;;3.10;;
54823;SDS011;40724;53.196;5.980;2023-12-07T03:03:08;5.47;;;3.95;;
54823;SDS011;40724;53.196;5.980;2023-12-07T03:05:34;6.38;;;3.38;;
54823;SDS011;40724;53.196;5.980;2023-12-07T03:08:00;7.22;;;3.85;;
54823;SDS011;40724;53.196;5.980;2023-12-07T03:10:26;4.10;;;3.33;;
54823;SDS011;40724;53.196;5.980;2023-12-07T03:12:52;5.85;;;3.20;;
54823;SDS011;40724;53.196;5.980;2023-12-07T03:15:18;5.57;;;3.63;;
54823;SDS011;40724;53.196;5.980;2023-12-07T03:17:44;4.55;;;3.72;;
54823;SDS011;40724;53.196;5.980;2023-12-07T03:20:11;3.60;;;3.00;;
54823;SDS011;40724;53.196;5.980;2023-12-07T03:22:37;4.60;;;3.35;;
54823;SDS011;40724;53.196;5.980;2023-12-07T03:25:04;4.45;;;3.22;;
54823;SDS011;40724;53.196;5.980;2023-12-07T03:27:31;5.00;;;3.40;;
54823;SDS011;40724;53.196;5.980;2023-12-07T03:29:57;4.20;;;3.47;;
54823;SDS011;40724;53.196;5.980;2023-12-07T03:32:23;6.30;;;3.55;;
54823;SDS011;40724;53.196;5.980;2023-12-07T03:34:49;4.28;;;2.97;;
54823;SDS011;40724;53.196;5.980;2023-12-07T03:37:15;4.82;;;3.67;;
54823;SDS011;40724;53.196;5.980;2023-12-07T03:39:41;5.28;;;3.83;;
54823;SDS011;40724;53.196;5.980;2023-12-07T03:42:07;4.82;;;3.28;;
54823;SDS011;40724;53.196;5.980;2023-12-07T03:44:33;5.93;;;3.10;;
54823;SDS011;40724;53.196;5.980;2023-12-07T03:47:00;5.32;;;3.63;;
54823;SDS011;40724;53.196;5.980;2023-12-07T03:49:26;5.63;;;3.78;;
54823;SDS011;40724;53.196;5.980;2023-12-07T03:51:52;4.95;;;3.00;;
54823;SDS011;40724;53.196;5.980;2023-12-07T03:54:18;5.53;;;3.10;;
54823;SDS011;40724;53.196;5.980;2023-12-07T03:56:44;4.60;;;3.53;;
54823;SDS011;40724;53.196;5.980;2023-12-07T03:59:10;5.38;;;3.65;;
54823;SDS011;40724;53.196;5.980;2023-12-07T04:01:36;5.53;;;3.50;;
54823;SDS011;40724;53.196;5.980;2023-12-07T04:04:03;4.63;;;3.03;;
54823;SDS011;40724;53.196;5.980;2023-12-07T04:06:30;6.22;;;3.40;;
54823;SDS011;40724;53.196;5.980;2023-12-07T04:08:59;4.47;;;2.90;;
54823;SDS011;40724;53.196;5.980;2023-12-07T04:11:25;6.30;;;3.65;;
54823;SDS011;40724;53.196;5.980;2023-12-07T04:13:51;6.82;;;3.58;;
54823;SDS011;40724;53.196;5.980;2023-12-07T04:16:17;6.35;;;3.55;;
54823;SDS011;40724;53.196;5.980;2023-12-07T04:18:43;5.03;;;3.33;;
54823;SDS011;40724;53.196;5.980;2023-12-07T04:21:09;6.85;;;3.35;;
54823;SDS011;40724;53.196;5.980;2023-12-07T04:23:35;5.80;;;3.83;;
54823;SDS011;40724;53.196;5.980;2023-12-07T04:26:02;7.70;;;3.88;;
54823;SDS011;40724;53.196;5.980;2023-12-07T04:28:28;6.57;;;4.15;;
54823;SDS011;40724;53.196;5.980;2023-12-07T04:30:54;6.97;;;4.32;;
54823;SDS011;40724;53.196;5.980;2023-12-07T04:33:20;7.80;;;3.38;;
54823;SDS011;40724;53.196;5.980;2023-12-07T04:35:46;6.28;;;3.20;;
54823;SDS011;40724;53.196;5.980;2023-12-07T04:38:12;5.93;;;4.00;;
54823;SDS011;40724;53.196;5.980;2023-12-07T04:40:38;6.20;;;3.55;;
54823;SDS011;40724;53.196;5.980;2023-12-07T04:43:05;4.40;;;3.30;;
54823;SDS011;40724;53.196;5.980;2023-12-07T04:45:32;7.05;;;4.20;;
54823;SDS011;40724;53.196;5.980;2023-12-07T04:47:58;6.15;;;3.88;;
54823;SDS011;40724;53.196;5.980;2023-12-07T04:50:25;5.32;;;3.80;;
54823;SDS011;40724;53.196;5.980;2023-12-07T04:52:51;6.07;;;4.07;;
54823;SDS011;40724;53.196;5.980;2023-12-07T04:55:19;6.53;;;4.03;;
54823;SDS011;40724;53.196;5.980;2023-12-07T04:57:45;7.00;;;4.28;;
54823;SDS011;40724;53.196;5.980;2023-12-07T05:00:12;6.82;;;4.97;;
54823;SDS011;40724;53.196;5.980;2023-12-07T05:02:39;8.07;;;5.15;;
54823;SDS011;40724;53.196;5.980;2023-12-07T05:05:05;6.68;;;4.50;;
54823;SDS011;40724;53.196;5.980;2023-12-07T05:07:31;6.68;;;4.30;;
54823;SDS011;40724;53.196;5.980;2023-12-07T05:09:57;7.07;;;4.88;;
54823;SDS011;40724;53.196;5.980;2023-12-07T05:12:23;5.00;;;3.95;;
54823;SDS011;40724;53.196;5.980;2023-12-07T05:14:50;7.05;;;4.40;;
54823;SDS011;40724;53.196;5.980;2023-12-07T05:17:16;6.85;;;4.20;;
54823;SDS011;40724;53.196;5.980;2023-12-07T05:19:43;9.15;;;4.18;;
54823;SDS011;40724;53.196;5.980;2023-12-07T05:22:10;6.22;;;4.60;;
54823;SDS011;40724;53.196;5.980;2023-12-07T05:24:36;6.40;;;4.55;;
54823;SDS011;40724;53.196;5.980;2023-12-07T05:27:02;5.43;;;4.30;;
54823;SDS011;40724;53.196;5.980;2023-12-07T05:29:29;6.57;;;4.22;;
54823;SDS011;40724;53.196;5.980;2023-12-07T05:31:55;7.13;;;5.45;;
54823;SDS011;40724;53.196;5.980;2023-12-07T05:34:21;6.65;;;4.50;;
54823;SDS011;40724;53.196;5.980;2023-12-07T05:36:47;10.77;;;5.88;;
54823;SDS011;40724;53.196;5.980;2023-12-07T05:39:13;6.47;;;4.40;;
54823;SDS011;40724;53.196;5.980;2023-12-07T05:41:39;6.63;;;4.40;;
54823;SDS011;40724;53.196;5.980;2023-12-07T05:44:06;6.88;;;4.53;;
54823;SDS011;40724;53.196;5.980;2023-12-07T05:46:34;6.05;;;4.18;;
54823;SDS011;40724;53.196;5.980;2023-12-07T05:49:01;7.03;;;5.32;;
54823;SDS011;40724;53.196;5.980;2023-12-07T05:51:28;6.70;;;4.43;;
54823;SDS011;40724;53.196;5.980;2023-12-07T05:53:54;5.15;;;4.32;;
54823;SDS011;40724;53.196;5.980;2023-12-07T05:56:20;6.47;;;4.53;;
54823;SDS011;40724;53.196;5.980;2023-12-07T05:58:47;6.53;;;5.20;;
54823;SDS011;40724;53.196;5.980;2023-12-07T06:01:16;5.28;;;4.28;;
54823;SDS011;40724;53.196;5.980;2023-12-07T06:03:42;6.45;;;4.45;;
54823;SDS011;40724;53.196;5.980;2023-12-07T06:06:09;5.05;;;3.72;;
54823;SDS011;40724;53.196;5.980;2023-12-07T06:08:36;6.25;;;4.90;;
54823;SDS011;40724;53.196;5.980;2023-12-07T06:11:03;5.88;;;4.28;;
54823;SDS011;40724;53.196;5.980;2023-12-07T06:13:29;6.75;;;4.72;;
54823;SDS011;40724;53.196;5.980;2023-12-07T06:15:55;5.40;;;3.97;;
54823;SDS011;40724;53.196;5.980;2023-12-07T06:18:21;6.03;;;4.25;;
54823;SDS011;40724;53.196;5.980;2023-12-07T06:20:47;6.45;;;3.90;;
54823;SDS011;40724;53.196;5.980;2023-12-07T06:23:14;7.25;;;4.80;;
54823;SDS011;40724;53.196;5.980;2023-12-07T06:25:40;5.88;;;3.88;;
54823;SDS011;40724;53.196;5.980;2023-12-07T06:28:06;7.05;;;4.30;;
54823;SDS011;40724;53.196;5.980;2023-12-07T06:30:33;6.68;;;4.07;;
54823;SDS011;40724;53.196;5.980;2023-12-07T06:33:00;5.93;;;4.13;;
54823;SDS011;40724;53.196;5.980;2023-12-07T06:35:26;7.13;;;4.68;;
54823;SDS011;40724;53.196;5.980;2023-12-07T06:37:52;6.07;;;4.63;;
54823;SDS011;40724;53.196;5.980;2023-12-07T06:40:18;7.32;;;4.50;;
54823;SDS011;40724;53.196;5.980;2023-12-07T06:42:45;6.90;;;4.72;;
54823;SDS011;40724;53.196;5.980;2023-12-07T06:45:11;6.88;;;5.20;;
54823;SDS011;40724;53.196;5.980;2023-12-07T06:47:42;6.90;;;5.00;;
54823;SDS011;40724;53.196;5.980;2023-12-07T06:50:09;6.05;;;4.97;;
54823;SDS011;40724;53.196;5.980;2023-12-07T06:52:35;8.15;;;4.80;;
54823;SDS011;40724;53.196;5.980;2023-12-07T06:55:01;8.55;;;5.43;;
54823;SDS011;40724;53.196;5.980;2023-12-07T06:57:28;6.40;;;4.50;;
54823;SDS011;40724;53.196;5.980;2023-12-07T06:59:54;7.28;;;4.95;;
54823;SDS011;40724;53.196;5.980;2023-12-07T07:02:20;7.25;;;5.03;;
54823;SDS011;40724;53.196;5.980;2023-12-07T07:04:46;6.82;;;5.20;;
54823;SDS011;40724;53.196;5.980;2023-12-07T07:07:14;6.53;;;4.85;;
54823;SDS011;40724;53.196;5.980;2023-12-07T07:09:43;7.10;;;4.65;;
54823;SDS011;40724;53.196;5.980;2023-12-07T07:12:10;6.65;;;4.95;;
54823;SDS011;40724;53.196;5.980;2023-12-07T07:14:36;6.60;;;4.88;;
54823;SDS011;40724;53.196;5.980;2023-12-07T07:17:03;10.25;;;5.65;;
54823;SDS011;40724;53.196;5.980;2023-12-07T07:19:30;7.75;;;5.32;;
54823;SDS011;40724;53.196;5.980;2023-12-07T07:21:59;7.93;;;5.63;;
54823;SDS011;40724;53.196;5.980;2023-12-07T07:24:25;8.02;;;5.93;;
54823;SDS011;40724;53.196;5.980;2023-12-07T07:26:51;8.82;;;5.60;;
54823;SDS011;40724;53.196;5.980;2023-12-07T07:29:18;8.77;;;5.05;;
54823;SDS011;40724;53.196;5.980;2023-12-07T07:31:44;8.02;;;5.50;;
54823;SDS011;40724;53.196;5.980;2023-12-07T07:34:10;9.50;;;5.97;;
54823;SDS011;40724;53.196;5.980;2023-12-07T07:36:37;9.88;;;5.30;;
54823;SDS011;40724;53.196;5.980;2023-12-07T07:39:03;8.50;;;5.68;;
54823;SDS011;40724;53.196;5.980;2023-12-07T07:41:32;8.27;;;5.50;;
54823;SDS011;40724;53.196;5.980;2023-12-07T07:43:58;9.00;;;5.78;;
54823;SDS011;40724;53.196;5.980;2023-12-07T07:46:24;9.98;;;5.57;;
54823;SDS011;40724;53.196;5.980;2023-12-07T07:48:51;8.75;;;6.00;;
54823;SDS011;40724;53.196;5.980;2023-12-07T07:51:17;10.63;;;6.25;;
54823;SDS011;40724;53.196;5.980;2023-12-07T07:53:43;12.63;;;6.43;;
54823;SDS011;40724;53.196;5.980;2023-12-07T07:56:09;8.60;;;6.05;;
54823;SDS011;40724;53.196;5.980;2023-12-07T07:58:36;9.65;;;6.40;;
54823;SDS011;40724;53.196;5.980;2023-12-07T08:01:05;11.32;;;7.22;;
54823;SDS011;40724;53.196;5.980;2023-12-07T08:03:32;10.40;;;6.72;;
54823;SDS011;40724;53.196;5.980;2023-12-07T08:05:58;10.85;;;7.45;;
54823;SDS011;40724;53.196;5.980;2023-12-07T08:08:24;13.32;;;7.72;;
54823;SDS011;40724;53.196;5.980;2023-12-07T08:10:51;13.05;;;8.70;;
54823;SDS011;40724;53.196;5.980;2023-12-07T08:13:17;12.40;;;8.95;;
54823;SDS011;40724;53.196;5.980;2023-12-07T08:15:43;13.15;;;8.75;;
54823;SDS011;40724;53.196;5.980;2023-12-07T08:18:10;15.45;;;9.90;;
54823;SDS011;40724;53.196;5.980;2023-12-07T08:20:36;14.38;;;9.63;;
54823;SDS011;40724;53.196;5.980;2023-12-07T08:23:03;12.68;;;9.93;;
54823;SDS011;40724;53.196;5.980;2023-12-07T08:25:29;14.10;;;8.77;;
54823;SDS011;40724;53.196;5.980;2023-12-07T08:27:57;13.45;;;9.93;;
54823;SDS011;40724;53.196;5.980;2023-12-07T08:30:23;15.18;;;9.52;;
54823;SDS011;40724;53.196;5.980;2023-12-07T08:32:49;12.73;;;9.30;;
54823;SDS011;40724;53.196;5.980;2023-12-07T08:35:15;13.32;;;9.85;;
54823;SDS011;40724;53.196;5.980;2023-12-07T08:37:41;11.32;;;8.30;;
54823;SDS011;40724;53.196;5.980;2023-12-07T08:40:07;13.90;;;9.38;;
54823;SDS011;40724;53.196;5.980;2023-12-07T08:42:36;14.15;;;9.75;;
54823;SDS011;40724;53.196;5.980;2023-12-07T08:45:02;18.25;;;10.32;;
54823;SDS011;40724;53.196;5.980;2023-12-07T08:47:28;15.23;;;10.10;;
54823;SDS011;40724;53.196;5.980;2023-12-07T08:49:56;14.63;;;9.57;;
54823;SDS011;40724;53.196;5.980;2023-12-07T08:52:23;13.82;;;10.45;;
54823;SDS011;40724;53.196;5.980;2023-12-07T08:54:49;11.88;;;9.55;;
54823;SDS011;40724;53.196;5.980;2023-12-07T08:57:17;13.85;;;9.38;;
54823;SDS011;40724;53.196;5.980;2023-12-07T08:59:43;13.73;;;9.55;;
54823;SDS011;40724;53.196;5.980;2023-12-07T09:02:09;13.40;;;9.65;;
54823;SDS011;40724;53.196;5.980;2023-12-07T09:04:35;14.45;;;10.05;;
54823;SDS011;40724;53.196;5.980;2023-12-07T09:07:02;14.20;;;9.77;;
54823;SDS011;40724;53.196;5.980;2023-12-07T09:09:28;13.15;;;9.38;;
54823;SDS011;40724;53.196;5.980;2023-12-07T09:11:54;12.55;;;9.00;;
54823;SDS011;40724;53.196;5.980;2023-12-07T09:14:20;12.95;;;9.05;;
54823;SDS011;40724;53.196;5.980;2023-12-07T09:16:47;15.40;;;9.35;;
54823;SDS011;40724;53.196;5.980;2023-12-07T09:19:13;13.50;;;9.38;;
54823;SDS011;40724;53.196;5.980;2023-12-07T09:21:39;16.52;;;9.18;;
54823;SDS011;40724;53.196;5.980;2023-12-07T09:24:06;16.00;;;10.57;;
54823;SDS011;40724;53.196;5.980;2023-12-07T09:26:32;16.95;;;11.18;;
54823;SDS011;40724;53.196;5.980;2023-12-07T09:28:58;15.30;;;9.30;;
54823;SDS011;40724;53.196;5.980;2023-12-07T09:31:24;14.75;;;9.85;;
54823;SDS011;40724;53.196;5.980;2023-12-07T09:33:51;18.60;;;11.10;;
54823;SDS011;40724;53.196;5.980;2023-12-07T09:36:18;12.45;;;9.40;;
54823;SDS011;40724;53.196;5.980;2023-12-07T09:38:46;13.82;;;9.77;;
54823;SDS011;40724;53.196;5.980;2023-12-07T09:41:12;16.38;;;11.18;;
54823;SDS011;40724;53.196;5.980;2023-12-07T09:43:39;14.18;;;10.38;;
54823;SDS011;40724;53.196;5.980;2023-12-07T09:46:05;15.07;;;11.15;;
54823;SDS011;40724;53.196;5.980;2023-12-07T09:48:31;15.52;;;9.27;;
54823;SDS011;40724;53.196;5.980;2023-12-07T09:50:59;15.80;;;11.30;;
54823;SDS011;40724;53.196;5.980;2023-12-07T09:53:27;16.38;;;10.50;;
54823;SDS011;40724;53.196;5.980;2023-12-07T09:55:55;16.15;;;11.65;;
54823;SDS011;40724;53.196;5.980;2023-12-07T09:58:22;18.70;;;11.90;;
54823;SDS011;40724;53.196;5.980;2023-12-07T10:00:48;15.15;;;11.50;;
54823;SDS011;40724;53.196;5.980;2023-12-07T10:03:21;16.30;;;10.43;;
54823;SDS011;40724;53.196;5.980;2023-12-07T10:05:59;15.57;;;11.52;;
54823;SDS011;40724;53.196;5.980;2023-12-07T10:11:06;16.33;;;11.15;;
54823;SDS011;40724;53.196;5.980;2023-12-07T10:13:33;14.52;;;10.43;;
54823;SDS011;40724;53.196;5.980;2023-12-07T10:16:09;16.08;;;10.23;;
54823;SDS011;40724;53.196;5.980;2023-12-07T10:18:36;16.35;;;10.88;;
54823;SDS011;40724;53.196;5.980;2023-12-07T10:21:02;13.55;;;9.63;;
54823;SDS011;40724;53.196;5.980;2023-12-07T10:23:29;12.27;;;9.68;;
54823;SDS011;40724;53.196;5.980;2023-12-07T10:25:57;15.52;;;10.40;;
54823;SDS011;40724;53.196;5.980;2023-12-07T10:28:24;14.68;;;9.77;;
54823;SDS011;40724;53.196;5.980;2023-12-07T10:30:50;16.35;;;10.48;;
54823;SDS011;40724;53.196;5.980;2023-12-07T10:33:16;14.35;;;9.98;;
54823;SDS011;40724;53.196;5.980;2023-12-07T10:35:44;12.35;;;9.07;;
54823;SDS011;40724;53.196;5.980;2023-12-07T10:38:10;12.30;;;9.63;;
54823;SDS011;40724;53.196;5.980;2023-12-07T10:40:37;13.85;;;9.82;;
54823;SDS011;40724;53.196;5.980;2023-12-07T10:43:07;16.33;;;9.50;;
54823;SDS011;40724;53.196;5.980;2023-12-07T10:45:33;14.30;;;10.18;;
54823;SDS011;40724;53.196;5.980;2023-12-07T10:48:04;16.00;;;10.88;;
54823;SDS011;40724;53.196;5.980;2023-12-07T10:50:32;14.70;;;10.02;;
54823;SDS011;40724;53.196;5.980;2023-12-07T10:53:48;14.73;;;10.45;;
54823;SDS011;40724;53.196;5.980;2023-12-07T10:55:53;12.57;;;9.65;;
54823;SDS011;40724;53.196;5.980;2023-12-07T10:58:22;14.33;;;9.60;;
54823;SDS011;40724;53.196;5.980;2023-12-07T11:00:51;14.48;;;9.77;;
54823;SDS011;40724;53.196;5.980;2023-12-07T11:03:21;13.23;;;8.95;;
54823;SDS011;40724;53.196;5.980;2023-12-07T11:05:47;11.48;;;9.15;;
54823;SDS011;40724;53.196;5.980;2023-12-07T11:13:29;10.80;;;8.77;;
54823;SDS011;40724;53.196;5.980;2023-12-07T11:15:57;12.18;;;7.72;;
54823;SDS011;40724;53.196;5.980;2023-12-07T11:18:26;9.07;;;7.85;;
54823;SDS011;40724;53.196;5.980;2023-12-07T11:20:53;10.15;;;8.13;;
54823;SDS011;40724;53.196;5.980;2023-12-07T11:23:20;11.63;;;8.25;;
54823;SDS011;40724;53.196;5.980;2023-12-07T11:25:46;9.02;;;6.78;;
54823;SDS011;40724;53.196;5.980;2023-12-07T11:28:14;9.35;;;7.70;;
54823;SDS011;40724;53.196;5.980;2023-12-07T11:30:46;7.57;;;6.35;;
54823;SDS011;40724;53.196;5.980;2023-12-07T11:33:14;8.02;;;6.65;;
54823;SDS011;40724;53.196;5.980;2023-12-07T11:38:25;8.05;;;6.45;;
54823;SDS011;40724;53.196;5.980;2023-12-07T11:40:51;8.45;;;6.32;;
54823;SDS011;40724;53.196;5.980;2023-12-07T11:45:58;7.53;;;6.13;;
54823;SDS011;40724;53.196;5.980;2023-12-07T11:48:24;7.07;;;5.43;;
54823;SDS011;40724;53.196;5.980;2023-12-07T11:50:57;7.22;;;6.28;;
54823;SDS011;40724;53.196;5.980;2023-12-07T11:53:29;9.40;;;6.05;;
54823;SDS011;40724;53.196;5.980;2023-12-07T11:55:55;7.10;;;6.03;;
54823;SDS011;40724;53.196;5.980;2023-12-07T11:58:29;6.32;;;5.05;;
54823;SDS011;40724;53.196;5.980;2023-12-07T12:00:56;6.75;;;5.50;;
54823;SDS011;40724;53.196;5.980;2023-12-07T12:03:26;6.60;;;4.97;;
54823;SDS011;40724;53.196;5.980;2023-12-07T12:05:56;7.00;;;5.75;;
54823;SDS011;40724;53.196;5.980;2023-12-07T12:08:22;9.65;;;5.35;;
54823;SDS011;40724;53.196;5.980;2023-12-07T12:10:48;7.85;;;5.90;;
54823;SDS011;40724;53.196;5.980;2023-12-07T12:13:16;7.43;;;5.45;;
54823;SDS011;40724;53.196;5.980;2023-12-07T12:15:42;8.13;;;6.18;;
54823;SDS011;40724;53.196;5.980;2023-12-07T12:18:08;7.00;;;4.70;;
54823;SDS011;40724;53.196;5.980;2023-12-07T12:20:34;10.02;;;6.40;;
54823;SDS011;40724;53.196;5.980;2023-12-07T12:23:01;6.60;;;4.78;;
54823;SDS011;40724;53.196;5.980;2023-12-07T12:25:27;6.13;;;5.00;;
54823;SDS011;40724;53.196;5.980;2023-12-07T12:28:01;8.32;;;5.68;;
54823;SDS011;40724;53.196;5.980;2023-12-07T12:30:29;6.85;;;5.22;;
54823;SDS011;40724;53.196;5.980;2023-12-07T12:32:55;5.70;;;5.13;;
54823;SDS011;40724;53.196;5.980;2023-12-07T12:35:22;6.85;;;5.97;;
54823;SDS011;40724;53.196;5.980;2023-12-07T12:37:49;5.65;;;5.13;;
54823;SDS011;40724;53.196;5.980;2023-12-07T12:40:16;7.75;;;6.18;;
54823;SDS011;40724;53.196;5.980;2023-12-07T12:42:47;6.68;;;5.78;;
54823;SDS011;40724;53.196;5.980;2023-12-07T12:45:14;7.35;;;6.22;;
54823;SDS011;40724;53.196;5.980;2023-12-07T12:47:41;7.97;;;6.68;;
54823;SDS011;40724;53.196;5.980;2023-12-07T12:50:08;9.18;;;6.55;;
54823;SDS011;40724;53.196;5.980;2023-12-07T12:52:35;8.30;;;6.38;;
54823;SDS011;40724;53.196;5.980;2023-12-07T12:55:02;9.02;;;6.68;;
54823;SDS011;40724;53.196;5.980;2023-12-07T12:57:28;8.68;;;6.70;;
54823;SDS011;40724;53.196;5.980;2023-12-07T12:59:54;10.32;;;7.20;;
54823;SDS011;40724;53.196;5.980;2023-12-07T13:02:20;8.18;;;6.90;;
54823;SDS011;40724;53.196;5.980;2023-12-07T13:04:46;11.02;;;7.72;;
54823;SDS011;40724;53.196;5.980;2023-12-07T13:07:13;10.45;;;8.00;;
54823;SDS011;40724;53.196;5.980;2023-12-07T13:09:39;8.77;;;7.40;;
54823;SDS011;40724;53.196;5.980;2023-12-07T13:12:06;10.35;;;8.60;;
54823;SDS011;40724;53.196;5.980;2023-12-07T13:14:32;10.73;;;8.40;;
54823;SDS011;40724;53.196;5.980;2023-12-07T13:17:00;10.15;;;7.95;;
54823;SDS011;40724;53.196;5.980;2023-12-07T13:19:29;9.00;;;7.63;;
54823;SDS011;40724;53.196;5.980;2023-12-07T13:21:55;9.52;;;7.88;;
54823;SDS011;40724;53.196;5.980;2023-12-07T13:24:21;12.05;;;8.80;;
54823;SDS011;40724;53.196;5.980;2023-12-07T13:26:47;10.38;;;8.20;;
54823;SDS011;40724;53.196;5.980;2023-12-07T13:29:13;11.43;;;9.32;;
54823;SDS011;40724;53.196;5.980;2023-12-07T13:31:39;11.10;;;8.27;;
54823;SDS011;40724;53.196;5.980;2023-12-07T13:34:06;11.10;;;8.73;;
54823;SDS011;40724;53.196;5.980;2023-12-07T13:36:32;11.57;;;9.32;;
54823;SDS011;40724;53.196;5.980;2023-12-07T13:38:58;10.52;;;8.60;;
54823;SDS011;40724;53.196;5.980;2023-12-07T13:41:27;13.02;;;9.85;;
54823;SDS011;40724;53.196;5.980;2023-12-07T13:43:53;13.82;;;9.45;;
54823;SDS011;40724;53.196;5.980;2023-12-07T13:46:25;15.55;;;10.52;;
54823;SDS011;40724;53.196;5.980;2023-12-07T13:48:51;12.27;;;9.40;;
54823;SDS011;40724;53.196;5.980;2023-12-07T13:51:18;11.13;;;9.30;;
54823;SDS011;40724;53.196;5.980;2023-12-07T13:53:45;14.18;;;10.88;;
54823;SDS011;40724;53.196;5.980;2023-12-07T13:56:11;12.27;;;9.45;;
54823;SDS011;40724;53.196;5.980;2023-12-07T13:58:37;13.13;;;9.32;;
54823;SDS011;40724;53.196;5.980;2023-12-07T14:01:04;12.95;;;9.15;;
54823;SDS011;40724;53.196;5.980;2023-12-07T14:03:30;12.55;;;9.45;;
54823;SDS011;40724;53.196;5.980;2023-12-07T14:05:56;10.50;;;8.50;;
54823;SDS011;40724;53.196;5.980;2023-12-07T14:08:22;12.75;;;9.95;;
54823;SDS011;40724;53.196;5.980;2023-12-07T14:10:51;13.05;;;10.15;;
54823;SDS011;40724;53.196;5.980;2023-12-07T14:13:17;13.32;;;9.10;;
54823;SDS011;40724;53.196;5.980;2023-12-07T14:15:43;14.15;;;9.30;;
54823;SDS011;40724;53.196;5.980;2023-12-07T14:18:09;13.18;;;9.75;;
54823;SDS011;40724;53.196;5.980;2023-12-07T14:20:35;14.75;;;8.55;;
54823;SDS011;40724;53.196;5.980;2023-12-07T14:23:01;13.90;;;9.80;;
54823;SDS011;40724;53.196;5.980;2023-12-07T14:25:30;14.48;;;9.88;;
54823;SDS011;40724;53.196;5.980;2023-12-07T14:27:57;11.73;;;8.98;;
54823;SDS011;40724;53.196;5.980;2023-12-07T14:30:23;12.70;;;9.00;;
54823;SDS011;40724;53.196;5.980;2023-12-07T14:32:49;11.90;;;9.77;;
54823;SDS011;40724;53.196;5.980;2023-12-07T14:35:19;11.60;;;8.90;;
54823;SDS011;40724;53.196;5.980;2023-12-07T14:37:45;11.48;;;9.07;;
54823;SDS011;40724;53.196;5.980;2023-12-07T14:40:11;10.60;;;9.10;;
54823;SDS011;40724;53.196;5.980;2023-12-07T14:42:38;12.68;;;9.00;;
54823;SDS011;40724;53.196;5.980;2023-12-07T14:45:04;11.32;;;8.13;;
54823;SDS011;40724;53.196;5.980;2023-12-07T14:47:30;11.95;;;9.10;;
54823;SDS011;40724;53.196;5.980;2023-12-07T14:49:57;11.77;;;8.60;;
54823;SDS011;40724;53.196;5.980;2023-12-07T14:52:23;13.52;;;9.73;;